sensor_id;sensor_type;location;lat;lon;timestamp;temperature;humidity
75985;DHT22;65033;44.660;37.758;2024-02-26T00:01:01;6.10;96.43
75985;DHT22;65033;44.660;37.758;2024-02-26T00:02:06;6.16;96.32
75985;DHT22;65033;44.660;37.758;2024-02-26T00:03:11;6.20;96.23
75985;DHT22;65033;44.660;37.758;2024-02-26T00:04:14;6.13;96.87
75985;DHT22;65033;44.660;37.758;2024-02-26T00:05:19;6.01;98.98
75985;DHT22;65033;44.660;37.758;2024-02-26T00:06:23;5.91;99.38
75985;DHT22;65033;44.660;37.758;2024-02-26T00:07:27;5.89;96.98
75985;DHT22;65033;44.660;37.758;2024-02-26T00:08:31;5.82;102.89
75985;DHT22;65033;44.660;37.758;2024-02-26T00:09:35;5.81;98.24
75985;DHT22;65033;44.660;37.758;2024-02-26T00:10:40;5.84;98.26
75985;DHT22;65033;44.660;37.758;2024-02-26T00:11:44;5.94;99.34
75985;DHT22;65033;44.660;37.758;2024-02-26T00:12:49;6.09;96.33
75985;DHT22;65033;44.660;37.758;2024-02-26T00:13:53;6.20;96.55
75985;DHT22;65033;44.660;37.758;2024-02-26T00:14:57;6.13;97.55
75985;DHT22;65033;44.660;37.758;2024-02-26T00:16:02;6.12;96.68
75985;DHT22;65033;44.660;37.758;2024-02-26T00:17:06;6.09;97.03
75985;DHT22;65033;44.660;37.758;2024-02-26T00:18:10;6.11;97.63
75985;DHT22;65033;44.660;37.758;2024-02-26T00:19:13;6.07;97.44
75985;DHT22;65033;44.660;37.758;2024-02-26T00:20:17;6.07;96.42
75985;DHT22;65033;44.660;37.758;2024-02-26T00:21:21;6.06;98.47
75985;DHT22;65033;44.660;37.758;2024-02-26T00:22:25;6.10;97.68
75985;DHT22;65033;44.660;37.758;2024-02-26T00:23:29;5.98;98.53
75985;DHT22;65033;44.660;37.758;2024-02-26T00:24:32;5.92;101.56
75985;DHT22;65033;44.660;37.758;2024-02-26T00:25:36;5.82;100.14
75985;DHT22;65033;44.660;37.758;2024-02-26T00:26:41;5.78;101.41
75985;DHT22;65033;44.660;37.758;2024-02-26T00:27:45;5.78;96.09
75985;DHT22;65033;44.660;37.758;2024-02-26T00:28:50;5.86;101.48
75985;DHT22;65033;44.660;37.758;2024-02-26T00:29:54;5.97;99.61
75985;DHT22;65033;44.660;37.758;2024-02-26T00:30:57;6.08;94.12
75985;DHT22;65033;44.660;37.758;2024-02-26T00:32:01;6.20;95.33
75985;DHT22;65033;44.660;37.758;2024-02-26T00:33:05;6.36;95.07
75985;DHT22;65033;44.660;37.758;2024-02-26T00:34:09;6.46;93.81
75985;DHT22;65033;44.660;37.758;2024-02-26T00:35:13;6.63;93.29
75985;DHT22;65033;44.660;37.758;2024-02-26T00:36:17;6.69;94.35
75985;DHT22;65033;44.660;37.758;2024-02-26T00:37:22;6.66;97.14
75985;DHT22;65033;44.660;37.758;2024-02-26T00:38:25;6.65;96.43
75985;DHT22;65033;44.660;37.758;2024-02-26T00:39:29;6.65;95.68
75985;DHT22;65033;44.660;37.758;2024-02-26T00:40:33;6.68;98.88
75985;DHT22;65033;44.660;37.758;2024-02-26T00:41:40;6.76;94.94
75985;DHT22;65033;44.660;37.758;2024-02-26T00:42:43;6.74;95.86
75985;DHT22;65033;44.660;37.758;2024-02-26T00:43:53;6.68;95.10
75985;DHT22;65033;44.660;37.758;2024-02-26T00:44:57;6.71;94.39
75985;DHT22;65033;44.660;37.758;2024-02-26T00:46:01;6.76;94.94
75985;DHT22;65033;44.660;37.758;2024-02-26T00:47:05;6.66;99.47
75985;DHT22;65033;44.660;37.758;2024-02-26T00:48:09;6.67;97.40
75985;DHT22;65033;44.660;37.758;2024-02-26T00:49:13;6.71;94.79
75985;DHT22;65033;44.660;37.758;2024-02-26T00:50:17;6.68;94.70
75985;DHT22;65033;44.660;37.758;2024-02-26T00:51:20;6.68;96.40
75985;DHT22;65033;44.660;37.758;2024-02-26T00:52:25;6.58;96.55
75985;DHT22;65033;44.660;37.758;2024-02-26T00:53:29;6.45;96.66
75985;DHT22;65033;44.660;37.758;2024-02-26T00:54:33;6.40;95.39
75985;DHT22;65033;44.660;37.758;2024-02-26T00:55:36;6.38;95.17
75985;DHT22;65033;44.660;37.758;2024-02-26T00:56:44;6.43;97.49
75985;DHT22;65033;44.660;37.758;2024-02-26T00:57:48;6.48;95.35
75985;DHT22;65033;44.660;37.758;2024-02-26T00:58:53;6.59;97.21
75985;DHT22;65033;44.660;37.758;2024-02-26T00:59:57;6.81;90.72
75985;DHT22;65033;44.660;37.758;2024-02-26T01:01:00;6.93;96.36
75985;DHT22;65033;44.660;37.758;2024-02-26T01:02:05;7.01;92.40
75985;DHT22;65033;44.660;37.758;2024-02-26T01:03:10;7.11;91.38
75985;DHT22;65033;44.660;37.758;2024-02-26T01:04:14;7.20;90.96
75985;DHT22;65033;44.660;37.758;2024-02-26T01:05:18;7.31;91.62
75985;DHT22;65033;44.660;37.758;2024-02-26T01:06:22;7.41;91.13
75985;DHT22;65033;44.660;37.758;2024-02-26T01:07:26;7.33;93.24
75985;DHT22;65033;44.660;37.758;2024-02-26T01:08:30;7.15;95.90
75985;DHT22;65033;44.660;37.758;2024-02-26T01:09:35;7.00;95.58
75985;DHT22;65033;44.660;37.758;2024-02-26T01:10:39;6.87;96.20
75985;DHT22;65033;44.660;37.758;2024-02-26T01:11:43;6.74;95.91
75985;DHT22;65033;44.660;37.758;2024-02-26T01:12:46;6.56;99.17
75985;DHT22;65033;44.660;37.758;2024-02-26T01:13:52;6.39;97.08
75985;DHT22;65033;44.660;37.758;2024-02-26T01:14:59;6.25;98.83
75985;DHT22;65033;44.660;37.758;2024-02-26T01:16:04;6.09;96.29
75985;DHT22;65033;44.660;37.758;2024-02-26T01:17:08;6.01;95.30
75985;DHT22;65033;44.660;37.758;2024-02-26T01:18:12;5.94;97.45
75985;DHT22;65033;44.660;37.758;2024-02-26T01:19:16;5.87;96.77
75985;DHT22;65033;44.660;37.758;2024-02-26T01:20:19;5.84;96.75
75985;DHT22;65033;44.660;37.758;2024-02-26T01:21:23;5.83;96.27
75985;DHT22;65033;44.660;37.758;2024-02-26T01:22:27;5.78;96.40
75985;DHT22;65033;44.660;37.758;2024-02-26T01:23:31;5.77;96.06
75985;DHT22;65033;44.660;37.758;2024-02-26T01:24:34;5.72;95.84
75985;DHT22;65033;44.660;37.758;2024-02-26T01:25:38;5.67;98.31
75985;DHT22;65033;44.660;37.758;2024-02-26T01:26:42;5.60;98.82
75985;DHT22;65033;44.660;37.758;2024-02-26T01:27:46;5.54;98.80
75985;DHT22;65033;44.660;37.758;2024-02-26T01:28:50;5.49;99.40
75985;DHT22;65033;44.660;37.758;2024-02-26T01:29:55;5.42;99.38
75985;DHT22;65033;44.660;37.758;2024-02-26T01:30:59;5.36;99.43
75985;DHT22;65033;44.660;37.758;2024-02-26T01:32:03;5.27;101.03
75985;DHT22;65033;44.660;37.758;2024-02-26T01:33:09;5.18;102.39
75985;DHT22;65033;44.660;37.758;2024-02-26T01:34:13;5.10;103.28
75985;DHT22;65033;44.660;37.758;2024-02-26T01:35:17;5.08;101.93
75985;DHT22;65033;44.660;37.758;2024-02-26T01:36:22;5.06;102.06
75985;DHT22;65033;44.660;37.758;2024-02-26T01:37:26;5.04;103.25
75985;DHT22;65033;44.660;37.758;2024-02-26T01:38:30;5.02;104.12
75985;DHT22;65033;44.660;37.758;2024-02-26T01:39:34;5.05;101.65
75985;DHT22;65033;44.660;37.758;2024-02-26T01:40:37;5.13;102.22
75985;DHT22;65033;44.660;37.758;2024-02-26T01:41:41;5.16;103.67
75985;DHT22;65033;44.660;37.758;2024-02-26T01:42:45;5.19;101.89
75985;DHT22;65033;44.660;37.758;2024-02-26T01:43:49;5.23;101.69
75985;DHT22;65033;44.660;37.758;2024-02-26T01:44:54;5.22;102.15
75985;DHT22;65033;44.660;37.758;2024-02-26T01:45:58;5.21;101.86
75985;DHT22;65033;44.660;37.758;2024-02-26T01:47:02;5.16;103.34
75985;DHT22;65033;44.660;37.758;2024-02-26T01:48:07;5.13;103.72
75985;DHT22;65033;44.660;37.758;2024-02-26T01:49:12;5.10;102.88
75985;DHT22;65033;44.660;37.758;2024-02-26T01:50:17;5.09;99.45
75985;DHT22;65033;44.660;37.758;2024-02-26T01:51:21;5.08;101.33
75985;DHT22;65033;44.660;37.758;2024-02-26T01:52:26;5.05;102.05
75985;DHT22;65033;44.660;37.758;2024-02-26T01:53:30;5.03;102.06
75985;DHT22;65033;44.660;37.758;2024-02-26T01:54:34;4.97;102.83
75985;DHT22;65033;44.660;37.758;2024-02-26T01:55:38;4.97;101.93
75985;DHT22;65033;44.660;37.758;2024-02-26T01:56:42;4.94;101.50
75985;DHT22;65033;44.660;37.758;2024-02-26T01:57:48;4.94;101.43
75985;DHT22;65033;44.660;37.758;2024-02-26T01:58:52;5.01;100.19
75985;DHT22;65033;44.660;37.758;2024-02-26T01:59:57;4.97;99.72
75985;DHT22;65033;44.660;37.758;2024-02-26T02:01:02;4.96;98.05
75985;DHT22;65033;44.660;37.758;2024-02-26T02:02:08;4.96;96.20
75985;DHT22;65033;44.660;37.758;2024-02-26T02:03:13;4.94;101.03
75985;DHT22;65033;44.660;37.758;2024-02-26T02:04:17;4.90;97.30
75985;DHT22;65033;44.660;37.758;2024-02-26T02:05:22;4.87;99.82
75985;DHT22;65033;44.660;37.758;2024-02-26T02:06:26;4.80;102.42
75985;DHT22;65033;44.660;37.758;2024-02-26T02:07:31;4.77;100.76
75985;DHT22;65033;44.660;37.758;2024-02-26T02:08:35;4.75;101.64
75985;DHT22;65033;44.660;37.758;2024-02-26T02:09:40;4.74;102.07
75985;DHT22;65033;44.660;37.758;2024-02-26T02:10:44;4.72;102.94
75985;DHT22;65033;44.660;37.758;2024-02-26T02:11:51;4.67;102.66
75985;DHT22;65033;44.660;37.758;2024-02-26T02:12:54;4.65;101.85
75985;DHT22;65033;44.660;37.758;2024-02-26T02:13:58;4.62;103.18
75985;DHT22;65033;44.660;37.758;2024-02-26T02:15:04;4.58;102.06
75985;DHT22;65033;44.660;37.758;2024-02-26T02:16:08;4.57;102.74
75985;DHT22;65033;44.660;37.758;2024-02-26T02:17:12;4.56;102.85
75985;DHT22;65033;44.660;37.758;2024-02-26T02:18:16;4.51;103.26
75985;DHT22;65033;44.660;37.758;2024-02-26T02:19:20;4.47;102.26
75985;DHT22;65033;44.660;37.758;2024-02-26T02:20:26;4.42;103.02
75985;DHT22;65033;44.660;37.758;2024-02-26T02:21:31;4.35;102.20
75985;DHT22;65033;44.660;37.758;2024-02-26T02:22:35;4.33;104.98
75985;DHT22;65033;44.660;37.758;2024-02-26T02:23:38;4.31;103.12
75985;DHT22;65033;44.660;37.758;2024-02-26T02:24:42;4.24;104.89
75985;DHT22;65033;44.660;37.758;2024-02-26T02:25:46;4.21;105.15
75985;DHT22;65033;44.660;37.758;2024-02-26T02:26:50;4.14;105.34
75985;DHT22;65033;44.660;37.758;2024-02-26T02:27:54;4.12;104.98
75985;DHT22;65033;44.660;37.758;2024-02-26T02:28:59;4.08;102.16
75985;DHT22;65033;44.660;37.758;2024-02-26T02:30:04;4.05;105.02
75985;DHT22;65033;44.660;37.758;2024-02-26T02:31:09;4.07;101.95
75985;DHT22;65033;44.660;37.758;2024-02-26T02:32:14;4.08;101.57
75985;DHT22;65033;44.660;37.758;2024-02-26T02:33:18;4.09;101.16
75985;DHT22;65033;44.660;37.758;2024-02-26T02:34:22;4.17;100.70
75985;DHT22;65033;44.660;37.758;2024-02-26T02:35:27;4.22;100.36
75985;DHT22;65033;44.660;37.758;2024-02-26T02:36:31;4.24;101.02
75985;DHT22;65033;44.660;37.758;2024-02-26T02:37:35;4.26;100.16
75985;DHT22;65033;44.660;37.758;2024-02-26T02:38:38;4.28;102.77
75985;DHT22;65033;44.660;37.758;2024-02-26T02:39:52;4.28;103.31
75985;DHT22;65033;44.660;37.758;2024-02-26T02:41:00;4.24;102.61
75985;DHT22;65033;44.660;37.758;2024-02-26T02:42:04;4.20;103.93
75985;DHT22;65033;44.660;37.758;2024-02-26T02:43:08;4.21;102.35
75985;DHT22;65033;44.660;37.758;2024-02-26T02:44:12;4.18;104.76
75985;DHT22;65033;44.660;37.758;2024-02-26T02:45:16;4.21;100.38
75985;DHT22;65033;44.660;37.758;2024-02-26T02:46:19;4.17;101.24
75985;DHT22;65033;44.660;37.758;2024-02-26T02:47:23;4.14;104.91
75985;DHT22;65033;44.660;37.758;2024-02-26T02:48:27;4.10;102.46
75985;DHT22;65033;44.660;37.758;2024-02-26T02:49:31;4.14;102.84
75985;DHT22;65033;44.660;37.758;2024-02-26T02:50:36;4.19;103.31
75985;DHT22;65033;44.660;37.758;2024-02-26T02:51:40;4.22;103.65
75985;DHT22;65033;44.660;37.758;2024-02-26T02:52:44;4.23;101.88
75985;DHT22;65033;44.660;37.758;2024-02-26T02:53:47;4.21;104.05
75985;DHT22;65033;44.660;37.758;2024-02-26T02:54:51;4.24;103.34
75985;DHT22;65033;44.660;37.758;2024-02-26T02:55:55;4.29;103.09
75985;DHT22;65033;44.660;37.758;2024-02-26T02:56:58;4.30;101.63
75985;DHT22;65033;44.660;37.758;2024-02-26T02:58:02;4.31;103.09
75985;DHT22;65033;44.660;37.758;2024-02-26T02:59:06;4.34;103.15
75985;DHT22;65033;44.660;37.758;2024-02-26T03:00:11;4.35;99.43
75985;DHT22;65033;44.660;37.758;2024-02-26T03:01:15;4.35;100.39
75985;DHT22;65033;44.660;37.758;2024-02-26T03:02:20;4.36;100.62
75985;DHT22;65033;44.660;37.758;2024-02-26T03:03:23;4.35;100.29
75985;DHT22;65033;44.660;37.758;2024-02-26T03:04:28;4.35;99.85
75985;DHT22;65033;44.660;37.758;2024-02-26T03:05:32;4.35;102.15
75985;DHT22;65033;44.660;37.758;2024-02-26T03:06:38;4.37;102.86
75985;DHT22;65033;44.660;37.758;2024-02-26T03:07:41;4.36;103.33
75985;DHT22;65033;44.660;37.758;2024-02-26T03:08:45;4.41;102.89
75985;DHT22;65033;44.660;37.758;2024-02-26T03:09:49;4.43;102.94
75985;DHT22;65033;44.660;37.758;2024-02-26T03:10:53;4.43;102.27
75985;DHT22;65033;44.660;37.758;2024-02-26T03:11:56;4.45;102.69
75985;DHT22;65033;44.660;37.758;2024-02-26T03:13:00;4.52;101.85
75985;DHT22;65033;44.660;37.758;2024-02-26T03:14:04;4.61;101.99
75985;DHT22;65033;44.660;37.758;2024-02-26T03:15:09;4.64;100.04
75985;DHT22;65033;44.660;37.758;2024-02-26T03:16:14;4.63;104.11
75985;DHT22;65033;44.660;37.758;2024-02-26T03:17:20;4.64;102.85
75985;DHT22;65033;44.660;37.758;2024-02-26T03:18:24;4.63;103.07
75985;DHT22;65033;44.660;37.758;2024-02-26T03:19:28;4.69;102.65
75985;DHT22;65033;44.660;37.758;2024-02-26T03:20:32;4.78;100.25
75985;DHT22;65033;44.660;37.758;2024-02-26T03:21:37;4.75;103.09
75985;DHT22;65033;44.660;37.758;2024-02-26T03:22:41;4.72;103.31
75985;DHT22;65033;44.660;37.758;2024-02-26T03:23:45;4.69;103.60
75985;DHT22;65033;44.660;37.758;2024-02-26T03:24:49;4.66;101.27
75985;DHT22;65033;44.660;37.758;2024-02-26T03:25:52;4.60;102.17
75985;DHT22;65033;44.660;37.758;2024-02-26T03:26:56;4.73;100.20
75985;DHT22;65033;44.660;37.758;2024-02-26T03:28:00;4.73;101.56
75985;DHT22;65033;44.660;37.758;2024-02-26T03:29:04;4.86;96.31
75985;DHT22;65033;44.660;37.758;2024-02-26T03:30:09;4.89;96.78
75985;DHT22;65033;44.660;37.758;2024-02-26T03:31:13;4.93;100.32
75985;DHT22;65033;44.660;37.758;2024-02-26T03:32:17;4.93;100.61
75985;DHT22;65033;44.660;37.758;2024-02-26T03:33:20;4.98;96.20
75985;DHT22;65033;44.660;37.758;2024-02-26T03:34:25;5.13;104.60
75985;DHT22;65033;44.660;37.758;2024-02-26T03:35:30;6.27;115.73
75985;DHT22;65033;44.660;37.758;2024-02-26T03:36:33;6.35;93.51
75985;DHT22;65033;44.660;37.758;2024-02-26T03:37:39;6.20;96.93
75985;DHT22;65033;44.660;37.758;2024-02-26T03:38:43;6.01;97.66
75985;DHT22;65033;44.660;37.758;2024-02-26T03:39:46;5.90;97.07
75985;DHT22;65033;44.660;37.758;2024-02-26T03:40:50;5.74;98.21
75985;DHT22;65033;44.660;37.758;2024-02-26T03:41:54;5.77;96.63
75985;DHT22;65033;44.660;37.758;2024-02-26T03:42:57;5.70;98.87
75985;DHT22;65033;44.660;37.758;2024-02-26T03:44:01;5.71;96.78
75985;DHT22;65033;44.660;37.758;2024-02-26T03:45:06;5.69;96.62
75985;DHT22;65033;44.660;37.758;2024-02-26T03:46:10;5.84;92.32
75985;DHT22;65033;44.660;37.758;2024-02-26T03:47:16;5.89;96.70
75985;DHT22;65033;44.660;37.758;2024-02-26T03:48:20;5.97;94.72
75985;DHT22;65033;44.660;37.758;2024-02-26T03:49:24;6.07;96.47
75985;DHT22;65033;44.660;37.758;2024-02-26T03:50:27;6.11;96.60
75985;DHT22;65033;44.660;37.758;2024-02-26T03:51:31;6.13;96.65
75985;DHT22;65033;44.660;37.758;2024-02-26T03:52:36;6.14;98.21
75985;DHT22;65033;44.660;37.758;2024-02-26T03:53:41;6.22;96.52
75985;DHT22;65033;44.660;37.758;2024-02-26T03:54:45;6.30;93.08
75985;DHT22;65033;44.660;37.758;2024-02-26T03:55:48;6.28;91.24
75985;DHT22;65033;44.660;37.758;2024-02-26T03:56:52;6.29;95.66
75985;DHT22;65033;44.660;37.758;2024-02-26T03:57:56;6.36;96.19
75985;DHT22;65033;44.660;37.758;2024-02-26T03:58:59;6.51;96.23
75985;DHT22;65033;44.660;37.758;2024-02-26T04:00:06;6.49;93.88
75985;DHT22;65033;44.660;37.758;2024-02-26T04:01:14;6.50;93.24
75985;DHT22;65033;44.660;37.758;2024-02-26T04:02:18;6.51;92.66
75985;DHT22;65033;44.660;37.758;2024-02-26T04:03:23;6.42;97.31
75985;DHT22;65033;44.660;37.758;2024-02-26T04:04:26;6.52;93.24
75985;DHT22;65033;44.660;37.758;2024-02-26T04:05:30;6.59;92.54
75985;DHT22;65033;44.660;37.758;2024-02-26T04:06:34;6.74;90.18
75985;DHT22;65033;44.660;37.758;2024-02-26T04:07:37;6.83;91.82
75985;DHT22;65033;44.660;37.758;2024-02-26T04:08:43;6.99;92.66
75985;DHT22;65033;44.660;37.758;2024-02-26T04:09:47;7.11;91.92
75985;DHT22;65033;44.660;37.758;2024-02-26T04:10:50;7.18;93.25
75985;DHT22;65033;44.660;37.758;2024-02-26T04:11:54;7.26;93.51
75985;DHT22;65033;44.660;37.758;2024-02-26T04:12:58;7.31;94.16
75985;DHT22;65033;44.660;37.758;2024-02-26T04:14:02;7.35;92.82
75985;DHT22;65033;44.660;37.758;2024-02-26T04:15:07;7.39;91.02
75985;DHT22;65033;44.660;37.758;2024-02-26T04:16:11;7.48;88.12
75985;DHT22;65033;44.660;37.758;2024-02-26T04:17:15;7.53;90.08
75985;DHT22;65033;44.660;37.758;2024-02-26T04:18:18;7.61;89.10
75985;DHT22;65033;44.660;37.758;2024-02-26T04:19:22;7.68;86.94
75985;DHT22;65033;44.660;37.758;2024-02-26T04:20:26;7.76;89.59
75985;DHT22;65033;44.660;37.758;2024-02-26T04:21:29;7.84;90.96
75985;DHT22;65033;44.660;37.758;2024-02-26T04:22:33;7.90;87.80
75985;DHT22;65033;44.660;37.758;2024-02-26T04:23:37;7.92;87.15
75985;DHT22;65033;44.660;37.758;2024-02-26T04:24:42;7.93;91.11
75985;DHT22;65033;44.660;37.758;2024-02-26T04:25:46;7.97;88.30
75985;DHT22;65033;44.660;37.758;2024-02-26T04:26:52;7.99;86.78
75985;DHT22;65033;44.660;37.758;2024-02-26T04:28:17;9.72;116.22
75985;DHT22;65033;44.660;37.758;2024-02-26T04:29:21;10.40;100.49
75985;DHT22;65033;44.660;37.758;2024-02-26T04:30:25;10.16;81.55
75985;DHT22;65033;44.660;37.758;2024-02-26T04:31:29;9.91;83.22
75985;DHT22;65033;44.660;37.758;2024-02-26T04:32:36;9.67;83.58
75985;DHT22;65033;44.660;37.758;2024-02-26T04:33:40;9.48;85.17
75985;DHT22;65033;44.660;37.758;2024-02-26T04:34:45;9.31;85.91
75985;DHT22;65033;44.660;37.758;2024-02-26T04:35:49;9.19;86.46
75985;DHT22;65033;44.660;37.758;2024-02-26T04:36:53;9.10;83.66
75985;DHT22;65033;44.660;37.758;2024-02-26T04:37:56;9.04;84.17
75985;DHT22;65033;44.660;37.758;2024-02-26T04:39:01;9.00;84.86
75985;DHT22;65033;44.660;37.758;2024-02-26T04:40:08;8.98;85.26
75985;DHT22;65033;44.660;37.758;2024-02-26T04:41:12;8.95;87.83
75985;DHT22;65033;44.660;37.758;2024-02-26T04:42:16;8.97;83.54
75985;DHT22;65033;44.660;37.758;2024-02-26T04:43:19;9.00;85.51
75985;DHT22;65033;44.660;37.758;2024-02-26T04:44:23;9.01;84.67
75985;DHT22;65033;44.660;37.758;2024-02-26T04:45:27;9.04;86.02
75985;DHT22;65033;44.660;37.758;2024-02-26T04:46:30;9.05;85.08
75985;DHT22;65033;44.660;37.758;2024-02-26T04:47:34;9.00;85.42
75985;DHT22;65033;44.660;37.758;2024-02-26T04:48:38;8.95;88.12
75985;DHT22;65033;44.660;37.758;2024-02-26T04:49:42;8.94;87.32
75985;DHT22;65033;44.660;37.758;2024-02-26T04:50:45;8.92;89.33
75985;DHT22;65033;44.660;37.758;2024-02-26T04:51:49;8.92;84.33
75985;DHT22;65033;44.660;37.758;2024-02-26T04:52:53;8.92;85.90
75985;DHT22;65033;44.660;37.758;2024-02-26T04:53:57;8.91;90.66
75985;DHT22;65033;44.660;37.758;2024-02-26T04:55:00;8.91;90.74
75985;DHT22;65033;44.660;37.758;2024-02-26T04:56:06;8.96;87.48
75985;DHT22;65033;44.660;37.758;2024-02-26T04:57:10;9.00;87.89
75985;DHT22;65033;44.660;37.758;2024-02-26T04:58:14;9.02;85.96
75985;DHT22;65033;44.660;37.758;2024-02-26T04:59:18;9.05;87.51
75985;DHT22;65033;44.660;37.758;2024-02-26T05:00:22;9.12;83.12
75985;DHT22;65033;44.660;37.758;2024-02-26T05:01:27;9.16;87.18
75985;DHT22;65033;44.660;37.758;2024-02-26T05:02:31;9.18;88.54
75985;DHT22;65033;44.660;37.758;2024-02-26T05:03:37;9.79;110.87
75985;DHT22;65033;44.660;37.758;2024-02-26T05:04:40;10.90;112.47
75985;DHT22;65033;44.660;37.758;2024-02-26T05:05:44;11.15;85.33
75985;DHT22;65033;44.660;37.758;2024-02-26T05:06:48;11.05;79.92
75985;DHT22;65033;44.660;37.758;2024-02-26T05:07:52;10.90;81.87
75985;DHT22;65033;44.660;37.758;2024-02-26T05:08:56;10.84;78.31
75985;DHT22;65033;44.660;37.758;2024-02-26T05:10:00;10.80;76.80
75985;DHT22;65033;44.660;37.758;2024-02-26T05:11:05;10.71;78.45
75985;DHT22;65033;44.660;37.758;2024-02-26T05:12:10;10.69;80.39
75985;DHT22;65033;44.660;37.758;2024-02-26T05:13:14;10.66;78.90
75985;DHT22;65033;44.660;37.758;2024-02-26T05:14:19;10.65;80.98
75985;DHT22;65033;44.660;37.758;2024-02-26T05:15:22;10.64;85.74
75985;DHT22;65033;44.660;37.758;2024-02-26T05:16:26;10.69;82.52
75985;DHT22;65033;44.660;37.758;2024-02-26T05:17:30;10.71;82.85
75985;DHT22;65033;44.660;37.758;2024-02-26T05:18:34;10.71;82.71
75985;DHT22;65033;44.660;37.758;2024-02-26T05:19:37;10.77;82.76
75985;DHT22;65033;44.660;37.758;2024-02-26T05:20:41;11.42;105.25
75985;DHT22;65033;44.660;37.758;2024-02-26T05:21:45;12.65;108.62
75985;DHT22;65033;44.660;37.758;2024-02-26T05:22:50;12.46;75.73
75985;DHT22;65033;44.660;37.758;2024-02-26T05:23:54;12.32;76.86
75985;DHT22;65033;44.660;37.758;2024-02-26T05:24:58;12.22;73.35
75985;DHT22;65033;44.660;37.758;2024-02-26T05:26:02;12.10;74.98
75985;DHT22;65033;44.660;37.758;2024-02-26T05:27:07;12.00;74.19
75985;DHT22;65033;44.660;37.758;2024-02-26T05:28:11;11.90;77.69
75985;DHT22;65033;44.660;37.758;2024-02-26T05:29:15;11.90;75.92
75985;DHT22;65033;44.660;37.758;2024-02-26T05:30:18;11.87;75.94
75985;DHT22;65033;44.660;37.758;2024-02-26T05:31:22;11.83;72.87
75985;DHT22;65033;44.660;37.758;2024-02-26T05:32:26;11.76;76.05
75985;DHT22;65033;44.660;37.758;2024-02-26T05:33:30;11.77;74.69
75985;DHT22;65033;44.660;37.758;2024-02-26T05:34:33;11.78;77.79
75985;DHT22;65033;44.660;37.758;2024-02-26T05:35:37;12.06;91.96
75985;DHT22;65033;44.660;37.758;2024-02-26T05:36:41;12.87;105.42
75985;DHT22;65033;44.660;37.758;2024-02-26T05:37:45;12.75;76.84
75985;DHT22;65033;44.660;37.758;2024-02-26T05:38:48;12.67;75.77
75985;DHT22;65033;44.660;37.758;2024-02-26T05:39:53;12.55;74.47
75985;DHT22;65033;44.660;37.758;2024-02-26T05:40:56;12.47;80.44
75985;DHT22;65033;44.660;37.758;2024-02-26T05:42:00;12.46;78.81
75985;DHT22;65033;44.660;37.758;2024-02-26T05:43:06;12.36;80.04
75985;DHT22;65033;44.660;37.758;2024-02-26T05:44:11;12.36;79.46
75985;DHT22;65033;44.660;37.758;2024-02-26T05:45:15;12.37;80.03
75985;DHT22;65033;44.660;37.758;2024-02-26T05:46:20;12.40;81.41
75985;DHT22;65033;44.660;37.758;2024-02-26T05:47:24;12.34;79.90
75985;DHT22;65033;44.660;37.758;2024-02-26T05:48:27;12.37;79.93
75985;DHT22;65033;44.660;37.758;2024-02-26T05:49:31;12.42;76.48
75985;DHT22;65033;44.660;37.758;2024-02-26T05:50:35;12.42;80.95
75985;DHT22;65033;44.660;37.758;2024-02-26T05:51:40;12.42;78.05
75985;DHT22;65033;44.660;37.758;2024-02-26T05:52:43;12.46;79.11
75985;DHT22;65033;44.660;37.758;2024-02-26T05:53:47;12.48;77.55
75985;DHT22;65033;44.660;37.758;2024-02-26T05:54:57;12.50;76.88
75985;DHT22;65033;44.660;37.758;2024-02-26T05:56:01;12.53;77.18
75985;DHT22;65033;44.660;37.758;2024-02-26T05:57:05;12.60;78.84
75985;DHT22;65033;44.660;37.758;2024-02-26T05:58:12;12.67;77.34
75985;DHT22;65033;44.660;37.758;2024-02-26T05:59:17;12.72;75.28
75985;DHT22;65033;44.660;37.758;2024-02-26T06:00:21;12.72;77.63
75985;DHT22;65033;44.660;37.758;2024-02-26T06:01:26;12.75;78.92
75985;DHT22;65033;44.660;37.758;2024-02-26T06:02:30;12.78;76.36
75985;DHT22;65033;44.660;37.758;2024-02-26T06:03:34;12.77;76.99
75985;DHT22;65033;44.660;37.758;2024-02-26T06:04:37;12.78;80.31
75985;DHT22;65033;44.660;37.758;2024-02-26T06:05:42;12.82;80.88
75985;DHT22;65033;44.660;37.758;2024-02-26T06:06:46;12.91;77.77
75985;DHT22;65033;44.660;37.758;2024-02-26T06:07:50;12.93;77.90
75985;DHT22;65033;44.660;37.758;2024-02-26T06:08:54;12.96;76.95
75985;DHT22;65033;44.660;37.758;2024-02-26T06:09:58;13.00;78.34
75985;DHT22;65033;44.660;37.758;2024-02-26T06:11:05;13.01;77.08
75985;DHT22;65033;44.660;37.758;2024-02-26T06:12:10;13.07;77.18
75985;DHT22;65033;44.660;37.758;2024-02-26T06:13:16;13.08;76.36
75985;DHT22;65033;44.660;37.758;2024-02-26T06:14:20;13.15;76.61
75985;DHT22;65033;44.660;37.758;2024-02-26T06:15:24;13.16;79.88
75985;DHT22;65033;44.660;37.758;2024-02-26T06:16:27;13.21;80.36
75985;DHT22;65033;44.660;37.758;2024-02-26T06:17:32;13.24;78.36
75985;DHT22;65033;44.660;37.758;2024-02-26T06:18:37;13.26;79.12
75985;DHT22;65033;44.660;37.758;2024-02-26T06:19:43;13.31;81.10
75985;DHT22;65033;44.660;37.758;2024-02-26T06:20:47;13.35;78.24
75985;DHT22;65033;44.660;37.758;2024-02-26T06:21:51;13.67;97.19
75985;DHT22;65033;44.660;37.758;2024-02-26T06:22:55;14.25;86.12
75985;DHT22;65033;44.660;37.758;2024-02-26T06:23:59;14.22;77.11
75985;DHT22;65033;44.660;37.758;2024-02-26T06:25:03;14.18;74.42
75985;DHT22;65033;44.660;37.758;2024-02-26T06:26:07;14.17;77.27
75985;DHT22;65033;44.660;37.758;2024-02-26T06:27:11;14.10;76.67
75985;DHT22;65033;44.660;37.758;2024-02-26T06:28:17;14.10;78.27
75985;DHT22;65033;44.660;37.758;2024-02-26T06:29:21;14.18;76.76
75985;DHT22;65033;44.660;37.758;2024-02-26T06:30:24;14.20;77.28
75985;DHT22;65033;44.660;37.758;2024-02-26T06:31:28;14.25;74.47
75985;DHT22;65033;44.660;37.758;2024-02-26T06:32:32;14.30;75.75
75985;DHT22;65033;44.660;37.758;2024-02-26T06:33:36;14.37;75.06
75985;DHT22;65033;44.660;37.758;2024-02-26T06:34:42;14.43;73.25
75985;DHT22;65033;44.660;37.758;2024-02-26T06:35:46;14.52;72.31
75985;DHT22;65033;44.660;37.758;2024-02-26T06:36:49;14.57;71.88
75985;DHT22;65033;44.660;37.758;2024-02-26T06:37:53;14.67;73.38
75985;DHT22;65033;44.660;37.758;2024-02-26T06:38:57;14.68;75.86
75985;DHT22;65033;44.660;37.758;2024-02-26T06:40:01;14.69;79.66
75985;DHT22;65033;44.660;37.758;2024-02-26T06:41:07;14.78;77.85
75985;DHT22;65033;44.660;37.758;2024-02-26T06:42:11;14.83;72.96
75985;DHT22;65033;44.660;37.758;2024-02-26T06:43:14;14.89;75.33